Time;durP1;ratioP1;P1;durP2;ratioP2;P2;SDS_P1;SDS_P2;PMS_P1;PMS_P2;Temp;Humidity;BMP_temperature;BMP_pressure;BME280_temperature;BME280_humidity;BME280_pressure;Samples;Min_cycle;Max_cycle;Signal;HPM_P1;HPM_P2
2024/01/15 00:01:04;;;;;;;2.73;2.33;;;13.20;54.60;;;;;;5051734;28;20886;-78
2024/01/15 00:03:32;;;;;;;2.57;2.33;;;13.20;54.50;;;;;;5052146;28;20481;-78
2024/01/15 00:06:00;;;;;;;7.07;3.10;;;13.20;54.70;;;;;;5052745;28;20470;-77
2024/01/15 00:08:29;;;;;;;4.50;2.73;;;13.20;54.80;;;;;;5053370;28;20488;-77
2024/01/15 00:10:57;;;;;;;5.70;3.17;;;13.30;54.80;;;;;;5071883;22;20514;-81
2024/01/15 00:13:25;;;;;;;3.23;2.30;;;13.30;54.90;;;;;;5049899;28;20516;-80
2024/01/15 00:15:52;;;;;;;3.40;2.60;;;13.30;54.90;;;;;;5055523;28;20454;-81
2024/01/15 00:18:21;;;;;;;4.67;3.07;;;13.30;54.90;;;;;;5054356;28;20447;-81
2024/01/15 00:20:49;;;;;;;5.90;2.97;;;13.30;54.90;;;;;;5053750;28;20534;-79
2024/01/15 00:23:17;;;;;;;6.83;3.03;;;13.30;55.00;;;;;;5055982;28;20474;-80
2024/01/15 00:25:47;;;;;;;3.37;2.63;;;13.30;54.90;;;;;;5055636;28;20466;-79
2024/01/15 00:28:15;;;;;;;4.43;2.73;;;13.30;55.10;;;;;;5050079;28;20879;-80
2024/01/15 00:30:43;;;;;;;5.53;3.03;;;13.30;55.10;;;;;;5054325;28;20497;-80
2024/01/15 00:33:12;;;;;;;4.00;2.67;;;13.30;54.90;;;;;;5053896;28;20462;-81
2024/01/15 00:35:40;;;;;;;2.57;2.30;;;13.30;55.30;;;;;;5061488;28;20442;-80
2024/01/15 00:38:08;;;;;;;3.10;2.80;;;13.30;55.30;;;;;;5058758;28;20528;-79
2024/01/15 00:40:37;;;;;;;4.47;2.70;;;13.30;55.30;;;;;;5053194;28;20504;-78
2024/01/15 00:43:07;;;;;;;4.00;2.57;;;13.30;55.40;;;;;;5054153;28;20477;-79
2024/01/15 00:45:35;;;;;;;7.20;2.40;;;13.30;55.30;;;;;;5055581;28;20470;-79
2024/01/15 00:48:04;;;;;;;5.20;2.77;;;13.30;55.40;;;;;;5054743;28;20480;-79
2024/01/15 00:50:32;;;;;;;4.37;2.80;;;13.30;55.30;;;;;;5056321;28;20589;-78
2024/01/15 00:53:00;;;;;;;6.50;3.17;;;13.30;55.40;;;;;;5056525;28;20483;-79
2024/01/15 00:55:29;;;;;;;8.20;2.93;;;13.30;55.40;;;;;;5052408;28;20446;-80
2024/01/15 00:58:00;;;;;;;6.20;3.00;;;13.30;55.40;;;;;;5057060;28;20544;-79
2024/01/15 01:00:30;;;;;;;3.00;2.53;;;13.30;55.50;;;;;;5053296;28;20586;-78
2024/01/15 01:02:58;;;;;;;8.47;3.00;;;13.30;55.40;;;;;;5055655;28;20466;-80
2024/01/15 01:05:26;;;;;;;3.67;2.70;;;13.40;55.40;;;;;;5052146;28;20538;-79
2024/01/15 01:07:54;;;;;;;7.63;2.70;;;13.30;55.50;;;;;;5061298;28;20485;-81
2024/01/15 01:10:25;;;;;;;3.97;3.00;;;13.30;55.30;;;;;;5054448;28;20449;-81
2024/01/15 01:12:53;;;;;;;4.80;3.00;;;13.30;55.60;;;;;;5059021;28;20442;-80
2024/01/15 01:15:21;;;;;;;4.97;2.93;;;13.30;55.60;;;;;;5056467;28;20446;-79
2024/01/15 01:17:51;;;;;;;4.00;2.80;;;13.30;55.50;;;;;;5060093;28;20506;-80
2024/01/15 01:20:20;;;;;;;5.60;3.67;;;13.30;55.40;;;;;;5054798;28;20561;-78
2024/01/15 01:22:48;;;;;;;4.37;3.03;;;13.30;55.70;;;;;;5051891;28;20459;-80
2024/01/15 01:25:16;;;;;;;6.13;3.20;;;13.30;55.60;;;;;;5057987;28;20501;-78
2024/01/15 01:27:45;;;;;;;6.53;3.03;;;13.30;55.50;;;;;;5054607;28;20434;-77
2024/01/15 01:30:13;;;;;;;4.13;2.90;;;13.30;55.60;;;;;;5059524;28;20440;-81
2024/01/15 01:32:42;;;;;;;5.40;3.50;;;13.30;55.70;;;;;;5058181;28;20446;-79
2024/01/15 01:35:11;;;;;;;5.27;2.83;;;13.30;55.70;;;;;;5056919;28;20450;-78
2024/01/15 01:37:40;;;;;;;7.67;3.60;;;13.30;55.70;;;;;;5057068;28;20469;-80
2024/01/15 01:40:09;;;;;;;5.53;3.70;;;13.30;55.80;;;;;;5057859;28;20453;-78
2024/01/15 01:42:37;;;;;;;6.73;3.73;;;13.30;56.30;;;;;;5055842;28;20473;-78
2024/01/15 01:45:06;;;;;;;8.60;4.10;;;13.30;55.60;;;;;;5056026;28;20509;-79
2024/01/15 01:47:34;;;;;;;5.60;4.03;;;13.30;55.80;;;;;;5055806;28;20496;-79
2024/01/15 01:50:03;;;;;;;6.30;4.43;;;13.30;55.70;;;;;;5055318;28;20447;-79
2024/01/15 01:52:33;;;;;;;8.53;5.07;;;13.30;55.90;;;;;;5055088;28;20557;-78
2024/01/15 01:55:01;;;;;;;7.70;4.43;;;13.30;55.80;;;;;;5055018;28;20470;-80
2024/01/15 01:57:29;;;;;;;10.90;5.50;;;13.30;56.00;;;;;;5054287;28;20442;-78
2024/01/15 01:59:57;;;;;;;11.37;5.43;;;13.30;55.70;;;;;;5054683;28;20446;-78
2024/01/15 02:02:25;;;;;;;9.43;5.47;;;13.30;55.90;;;;;;5054768;28;20540;-79
2024/01/15 02:04:53;;;;;;;13.80;5.40;;;13.30;55.80;;;;;;5057689;28;20431;-78
2024/01/15 02:07:21;;;;;;;8.03;5.33;;;13.30;56.00;;;;;;5057534;28;20524;-79
2024/01/15 02:09:52;;;;;;;10.90;5.53;;;13.30;55.90;;;;;;5057698;28;20451;-78
2024/01/15 02:12:20;;;;;;;11.00;5.60;;;13.30;56.00;;;;;;5057588;28;20474;-77
2024/01/15 02:14:48;;;;;;;14.20;6.43;;;13.30;55.90;;;;;;5057897;28;20504;-78
2024/01/15 02:17:16;;;;;;;11.50;6.37;;;13.30;55.90;;;;;;5056603;28;20469;-78
2024/01/15 02:19:44;;;;;;;10.70;5.90;;;13.30;55.80;;;;;;5056694;28;20458;-78
2024/01/15 02:22:13;;;;;;;11.40;5.80;;;13.30;55.70;;;;;;5055423;28;20539;-78
2024/01/15 02:24:42;;;;;;;8.53;5.10;;;13.30;55.80;;;;;;5059075;28;20477;-79
2024/01/15 02:27:11;;;;;;;8.20;5.03;;;13.20;55.70;;;;;;5059727;28;20470;-79
2024/01/15 02:29:38;;;;;;;11.10;5.60;;;13.20;55.90;;;;;;5058941;28;21003;-79
2024/01/15 02:32:07;;;;;;;12.70;6.10;;;13.20;55.90;;;;;;5057690;28;20534;-79
2024/01/15 02:34:35;;;;;;;11.30;5.60;;;13.20;55.90;;;;;;5057621;28;20493;-79
2024/01/15 02:37:04;;;;;;;8.70;4.97;;;13.20;55.70;;;;;;5056117;28;20443;-79
2024/01/15 02:39:32;;;;;;;7.97;5.00;;;13.20;55.80;;;;;;5054873;28;20446;-78
2024/01/15 02:42:02;;;;;;;12.80;5.33;;;13.20;55.90;;;;;;5054723;28;20496;-78
2024/01/15 02:44:30;;;;;;;11.73;5.67;;;13.20;55.90;;;;;;5058417;28;20446;-79
2024/01/15 02:46:58;;;;;;;8.77;5.00;;;13.20;55.90;;;;;;5057735;28;20532;-79
2024/01/15 02:49:26;;;;;;;6.63;4.77;;;13.20;56.00;;;;;;5057645;28;20492;-78
2024/01/15 02:51:55;;;;;;;9.60;4.93;;;13.20;55.90;;;;;;5065338;28;20479;-77
2024/01/15 02:54:23;;;;;;;10.53;5.13;;;13.20;56.00;;;;;;5064254;28;20469;-77
2024/01/15 02:56:51;;;;;;;7.67;4.77;;;13.20;56.00;;;;;;5066959;28;21013;-78
2024/01/15 02:59:20;;;;;;;11.87;4.80;;;13.20;56.10;;;;;;5069914;28;20453;-79
2024/01/15 03:01:48;;;;;;;8.03;4.60;;;13.20;56.00;;;;;;5068572;28;20467;-78
2024/01/15 03:04:16;;;;;;;7.83;4.60;;;13.20;56.10;;;;;;5067807;28;20462;-81
2024/01/15 03:06:44;;;;;;;7.20;4.30;;;13.20;56.20;;;;;;5067198;28;20474;-78
2024/01/15 03:09:13;;;;;;;6.40;4.27;;;13.20;55.90;;;;;;5062350;28;20442;-78
2024/01/15 03:11:41;;;;;;;6.87;4.13;;;13.20;56.10;;;;;;5064817;28;20545;-79
2024/01/15 03:14:09;;;;;;;8.73;4.10;;;13.20;56.00;;;;;;5062298;28;20462;-79
2024/01/15 03:16:39;;;;;;;6.00;3.90;;;13.20;55.90;;;;;;5061553;28;20433;-79
2024/01/15 03:19:07;;;;;;;5.70;3.93;;;13.20;56.10;;;;;;5066636;28;20450;-79
2024/01/15 03:21:35;;;;;;;8.40;3.83;;;13.20;56.00;;;;;;5065748;28;20481;-78
2024/01/15 03:24:03;;;;;;;8.27;4.20;;;13.10;55.70;;;;;;5064759;28;20447;-79
2024/01/15 03:26:31;;;;;;;7.60;4.10;;;13.10;56.10;;;;;;5066648;28;20470;-78
2024/01/15 03:28:59;;;;;;;7.50;3.90;;;13.10;55.90;;;;;;5070728;28;20450;-79
2024/01/15 03:31:27;;;;;;;9.10;3.90;;;13.10;55.80;;;;;;5071081;28;20459;-79
2024/01/15 03:33:57;;;;;;;9.53;3.77;;;13.10;55.90;;;;;;5070528;28;20447;-79
2024/01/15 03:36:25;;;;;;;7.03;4.27;;;13.10;55.80;;;;;;5069307;28;20442;-80
2024/01/15 03:38:53;;;;;;;7.20;3.80;;;13.10;55.90;;;;;;5069003;28;20461;-79
2024/01/15 03:41:21;;;;;;;8.00;4.17;;;13.10;55.90;;;;;;5067366;28;20462;-79
2024/01/15 03:43:49;;;;;;;8.27;3.67;;;13.10;55.90;;;;;;5066392;28;20442;-79
2024/01/15 03:46:18;;;;;;;5.77;4.00;;;13.10;55.90;;;;;;5064222;28;20446;-79
2024/01/15 03:48:46;;;;;;;8.17;3.47;;;13.10;55.90;;;;;;5067850;28;20534;-79
2024/01/15 03:51:17;;;;;;;4.93;3.20;;;13.10;55.90;;;;;;5060468;28;20470;-78
2024/01/15 03:53:45;;;;;;;6.33;3.40;;;13.10;56.00;;;;;;5063752;28;20458;-79
2024/01/15 03:56:13;;;;;;;5.23;3.07;;;13.10;55.90;;;;;;5066555;28;20443;-79
2024/01/15 03:58:41;;;;;;;6.20;3.43;;;13.00;55.90;;;;;;5067164;28;20469;-78
2024/01/15 04:01:10;;;;;;;5.77;2.93;;;13.10;55.70;;;;;;5061660;28;20478;-78
2024/01/15 04:03:38;;;;;;;4.97;2.80;;;13.10;56.00;;;;;;5063667;28;20447;-80
2024/01/15 04:06:06;;;;;;;4.73;3.20;;;13.00;55.90;;;;;;5067226;28;20508;-80
2024/01/15 04:08:36;;;;;;;7.97;3.50;;;13.00;56.00;;;;;;5048738;28;20471;-79
2024/01/15 04:11:04;;;;;;;4.70;2.97;;;13.10;56.20;;;;;;5061435;28;20539;-78
2024/01/15 04:13:33;;;;;;;4.93;2.60;;;13.10;56.20;;;;;;5055744;28;20451;-78
2024/01/15 04:16:01;;;;;;;6.23;3.00;;;13.10;56.00;;;;;;5055919;28;20450;-77
2024/01/15 04:18:29;;;;;;;7.87;3.33;;;13.10;56.20;;;;;;5062574;28;20488;-78
2024/01/15 04:20:57;;;;;;;4.30;2.60;;;13.10;56.20;;;;;;5061894;28;20470;-81
2024/01/15 04:23:25;;;;;;;4.03;2.50;;;13.10;56.30;;;;;;5061403;28;20477;-80
2024/01/15 04:25:55;;;;;;;4.10;2.63;;;13.10;56.30;;;;;;5047851;28;20524;-78
2024/01/15 04:28:23;;;;;;;3.50;2.70;;;13.10;56.30;;;;;;5057186;28;20469;-78
2024/01/15 04:30:51;;;;;;;4.83;2.70;;;13.10;56.30;;;;;;5061741;28;20493;-77
2024/01/15 04:33:21;;;;;;;4.77;2.50;;;13.10;56.20;;;;;;5062977;28;20453;-79
2024/01/15 04:35:50;;;;;;;6.97;2.67;;;13.10;56.30;;;;;;5066588;28;20454;-81
2024/01/15 04:38:19;;;;;;;2.80;2.60;;;13.10;56.30;;;;;;5065019;28;20810;-78
2024/01/15 04:40:47;;;;;;;4.13;2.43;;;13.10;56.00;;;;;;5064950;28;20458;-77
2024/01/15 04:43:19;;;;;;;3.73;2.20;;;13.10;56.30;;;;;;5066017;28;20443;-77
2024/01/15 04:45:47;;;;;;;4.97;2.20;;;13.10;56.20;;;;;;5059963;28;20442;-79
2024/01/15 04:48:15;;;;;;;5.27;2.53;;;13.10;56.20;;;;;;5066053;28;20485;-79
2024/01/15 04:50:44;;;;;;;4.03;2.33;;;13.10;56.30;;;;;;5065428;28;20466;-77
2024/01/15 04:53:12;;;;;;;4.10;2.67;;;13.10;56.10;;;;;;5065215;28;20451;-79
2024/01/15 04:55:40;;;;;;;2.73;2.33;;;13.10;56.20;;;;;;5065307;28;20497;-78
2024/01/15 04:58:08;;;;;;;4.80;2.60;;;13.10;56.40;;;;;;5062466;28;20480;-77
2024/01/15 05:00:38;;;;;;;4.90;2.40;;;13.10;56.40;;;;;;5061805;28;20470;-77
2024/01/15 05:03:07;;;;;;;3.60;2.30;;;13.10;56.10;;;;;;5059877;28;20447;-78
2024/01/15 05:05:35;;;;;;;3.73;2.13;;;13.10;56.30;;;;;;5058183;28;20504;-77
2024/01/15 05:08:05;;;;;;;4.50;2.37;;;13.10;56.20;;;;;;5054842;28;20493;-78
2024/01/15 05:10:33;;;;;;;9.30;2.90;;;13.10;56.40;;;;;;5059524;28;20466;-78
2024/01/15 05:13:01;;;;;;;5.30;2.27;;;13.10;56.30;;;;;;5060025;28;20470;-75
2024/01/15 05:15:29;;;;;;;2.83;2.10;;;13.00;56.20;;;;;;5061126;28;20442;-78
2024/01/15 05:17:59;;;;;;;4.67;2.30;;;13.10;56.40;;;;;;5066451;28;20526;-77
2024/01/15 05:20:27;;;;;;;4.40;2.50;;;13.10;56.20;;;;;;5059442;28;20459;-78
2024/01/15 05:22:55;;;;;;;8.73;2.40;;;13.10;56.20;;;;;;5067968;28;20477;-81
2024/01/15 05:25:23;;;;;;;3.00;1.83;;;13.10;56.40;;;;;;5066750;28;20457;-79
2024/01/15 05:27:53;;;;;;;5.77;2.03;;;13.10;56.40;;;;;;5058181;28;20466;-78
2024/01/15 05:30:21;;;;;;;3.43;2.20;;;13.10;56.30;;;;;;5063369;28;20477;-77
2024/01/15 05:32:49;;;;;;;2.33;1.90;;;13.10;56.40;;;;;;5062512;28;20529;-78
2024/01/15 05:35:19;;;;;;;4.37;2.10;;;13.10;56.40;;;;;;5063548;28;20439;-80
2024/01/15 05:37:47;;;;;;;3.00;2.00;;;13.10;56.30;;;;;;5061335;28;20451;-78
2024/01/15 05:40:15;;;;;;;3.30;1.97;;;13.10;56.30;;;;;;5061141;28;20496;-78
2024/01/15 05:42:44;;;;;;;4.73;2.07;;;13.10;56.40;;;;;;5045757;28;20450;-79
2024/01/15 05:45:12;;;;;;;2.80;2.17;;;13.10;56.20;;;;;;5059610;28;20640;-78
2024/01/15 05:47:40;;;;;;;6.23;2.73;;;13.00;56.40;;;;;;5058725;28;20528;-78
2024/01/15 05:50:09;;;;;;;2.80;1.43;;;13.10;56.40;;;;;;5060045;28;20446;-79
2024/01/15 05:52:38;;;;;;;3.50;1.90;;;13.10;56.40;;;;;;5058022;28;20443;-79
2024/01/15 05:55:07;;;;;;;4.70;2.30;;;13.10;56.40;;;;;;5058445;28;20485;-78
2024/01/15 05:57:35;;;;;;;2.67;1.90;;;13.10;56.40;;;;;;5058207;28;20542;-78
2024/01/15 06:00:03;;;;;;;6.27;2.00;;;13.00;56.40;;;;;;5059153;28;20442;-78
2024/01/15 06:02:31;;;;;;;2.10;1.73;;;13.10;56.50;;;;;;5057611;28;20838;-78
2024/01/15 06:05:01;;;;;;;4.63;1.70;;;13.10;56.50;;;;;;5055497;28;20450;-79
2024/01/15 06:07:29;;;;;;;4.67;2.50;;;13.10;56.50;;;;;;5054708;28;20446;-78
2024/01/15 06:09:58;;;;;;;4.60;1.50;;;13.10;56.50;;;;;;5055980;28;20493;-79
2024/01/15 06:12:27;;;;;;;2.10;1.90;;;13.10;56.40;;;;;;5055999;28;20555;-79
2024/01/15 06:14:55;;;;;;;2.83;1.83;;;13.10;56.50;;;;;;5055798;28;20443;-79
2024/01/15 06:17:24;;;;;;;3.77;1.60;;;13.10;56.30;;;;;;5061439;28;20492;-80
2024/01/15 06:19:52;;;;;;;2.50;1.77;;;13.10;56.60;;;;;;5061256;28;20476;-80
2024/01/15 06:22:20;;;;;;;1.97;1.87;;;13.10;56.50;;;;;;5059962;28;20466;-79
2024/01/15 06:24:48;;;;;;;1.77;1.37;;;13.10;56.40;;;;;;5046822;28;20435;-80
2024/01/15 06:27:18;;;;;;;2.83;1.67;;;13.10;56.70;;;;;;5061862;28;20529;-79
2024/01/15 06:29:47;;;;;;;3.57;1.50;;;13.10;56.60;;;;;;5060906;28;20474;-79
2024/01/15 06:32:17;;;;;;;3.73;1.77;;;13.10;56.60;;;;;;5058974;28;20526;-80
2024/01/15 06:34:46;;;;;;;4.07;1.73;;;13.10;56.50;;;;;;5059612;28;20557;-80
2024/01/15 06:37:14;;;;;;;3.83;2.00;;;13.10;56.60;;;;;;5056189;28;20446;-79
2024/01/15 06:39:42;;;;;;;2.33;1.53;;;13.10;56.40;;;;;;5060689;28;20450;-79
2024/01/15 06:42:11;;;;;;;4.00;1.67;;;13.10;56.60;;;;;;5058673;28;20458;-84
2024/01/15 06:44:43;;;;;;;2.10;1.30;;;13.10;56.70;;;;;;5062117;28;20449;-81
2024/01/15 06:47:18;;;;;;;4.03;1.77;;;13.10;56.60;;;;;;5062470;28;20484;-81
2024/01/15 06:49:46;;;;;;;3.40;2.00;;;13.00;56.60;;;;;;5061285;28;20466;-80
2024/01/15 06:52:14;;;;;;;1.30;1.13;;;13.10;56.60;;;;;;5060070;28;20477;-79
2024/01/15 06:54:43;;;;;;;3.03;1.83;;;13.10;56.50;;;;;;5062026;28;20493;-80
2024/01/15 06:57:14;;;;;;;3.07;1.40;;;13.10;56.40;;;;;;5059902;28;20447;-79
2024/01/15 06:59:43;;;;;;;1.87;1.57;;;13.10;56.40;;;;;;5058443;28;20447;-78
2024/01/15 07:02:12;;;;;;;2.87;1.70;;;13.10;56.30;;;;;;5057441;28;20455;-79
2024/01/15 07:04:40;;;;;;;4.73;1.77;;;13.10;56.10;;;;;;5057156;28;20508;-79
2024/01/15 07:07:10;;;;;;;3.70;1.90;;;13.10;56.20;;;;;;5053186;28;20438;-77
2024/01/15 07:09:38;;;;;;;3.13;1.87;;;13.10;56.20;;;;;;5050596;28;20500;-78
2024/01/15 07:12:06;;;;;;;4.30;1.50;;;13.10;56.20;;;;;;5045685;28;20475;-79
2024/01/15 07:14:35;;;;;;;1.93;1.70;;;13.10;56.20;;;;;;5047323;28;20856;-79
2024/01/15 07:17:04;;;;;;;1.63;1.53;;;13.10;56.40;;;;;;5048446;28;20479;-79
2024/01/15 07:19:32;;;;;;;4.03;2.00;;;13.20;56.40;;;;;;5052274;28;20501;-79
2024/01/15 07:22:01;;;;;;;6.00;2.40;;;13.10;56.30;;;;;;5052705;28;20466;-78
2024/01/15 07:24:29;;;;;;;6.03;2.10;;;13.20;56.50;;;;;;5047687;28;20445;-79
2024/01/15 07:26:57;;;;;;;3.97;1.93;;;13.20;56.50;;;;;;5051324;28;20436;-79
2024/01/15 07:29:25;;;;;;;2.20;1.73;;;13.20;56.60;;;;;;5053329;28;20467;-80
2024/01/15 07:31:53;;;;;;;4.00;1.83;;;13.20;56.50;;;;;;5050791;28;20483;-79
2024/01/15 07:34:22;;;;;;;5.03;1.70;;;13.20;56.50;;;;;;5047381;28;20427;-79
2024/01/15 07:36:50;;;;;;;4.20;1.97;;;13.20;56.70;;;;;;5048477;28;20443;-78
2024/01/15 07:39:18;;;;;;;3.70;1.50;;;13.20;56.70;;;;;;5051961;28;20433;-78
2024/01/15 07:41:47;;;;;;;1.83;1.57;;;13.20;56.60;;;;;;5050447;28;20453;-78
2024/01/15 07:44:15;;;;;;;5.80;1.50;;;13.20;56.60;;;;;;5050903;28;20431;-79
2024/01/15 07:46:45;;;;;;;3.10;1.43;;;13.20;56.70;;;;;;5049159;28;20430;-77
2024/01/15 07:49:13;;;;;;;1.73;1.63;;;13.20;56.70;;;;;;5048936;28;20470;-78
2024/01/15 07:51:43;;;;;;;3.83;1.93;;;13.20;56.70;;;;;;5050447;28;20467;-78
2024/01/15 07:54:12;;;;;;;6.43;1.80;;;13.20;56.80;;;;;;5050560;28;20525;-79
2024/01/15 07:56:54;;;;;;;5.00;1.93;;;13.20;56.70;;;;;;5045975;28;20435;-79
2024/01/15 07:59:22;;;;;;;2.00;1.37;;;13.20;56.70;;;;;;5049841;28;20419;-79
2024/01/15 08:01:50;;;;;;;6.70;1.60;;;13.20;56.80;;;;;;5045883;28;20584;-79
2024/01/15 08:04:18;;;;;;;3.10;1.70;;;13.20;56.60;;;;;;5050915;28;20447;-77
2024/01/15 08:06:47;;;;;;;2.60;2.00;;;13.30;56.80;;;;;;5052580;28;20435;-77
2024/01/15 08:09:15;;;;;;;3.50;1.90;;;13.30;56.70;;;;;;5039330;28;20466;-79
2024/01/15 08:11:43;;;;;;;2.40;1.43;;;13.30;56.80;;;;;;5046061;28;20470;-78
2024/01/15 08:14:11;;;;;;;2.50;1.30;;;13.30;56.70;;;;;;5045695;28;20478;-78
2024/01/15 08:16:40;;;;;;;3.43;1.73;;;13.30;56.70;;;;;;5048937;28;20473;-78
2024/01/15 08:19:08;;;;;;;2.73;1.60;;;13.30;56.70;;;;;;5048198;28;20439;-79
2024/01/15 08:21:36;;;;;;;3.30;1.50;;;13.30;56.70;;;;;;5049854;28;20463;-78
2024/01/15 08:24:06;;;;;;;2.70;1.30;;;13.30;56.60;;;;;;5050166;28;20445;-79
2024/01/15 08:26:34;;;;;;;1.70;1.60;;;13.30;56.70;;;;;;5049818;28;20431;-78
2024/01/15 08:29:02;;;;;;;3.07;1.80;;;13.30;56.70;;;;;;5049277;28;20566;-80
2024/01/15 08:31:29;;;;;;;2.97;1.30;;;13.40;56.80;;;;;;5046501;28;20491;-77
2024/01/15 08:33:59;;;;;;;3.73;1.60;;;13.40;56.80;;;;;;5050222;28;20462;-79
2024/01/15 08:36:28;;;;;;;2.07;1.60;;;13.40;56.70;;;;;;5050738;28;20431;-78
2024/01/15 08:38:56;;;;;;;2.43;1.20;;;13.50;56.70;;;;;;5046405;28;20443;-78
2024/01/15 08:41:25;;;;;;;4.80;1.30;;;13.50;56.60;;;;;;5046625;28;20561;-78
2024/01/15 08:43:53;;;;;;;2.80;1.40;;;13.50;56.50;;;;;;5050119;28;20470;-77
2024/01/15 08:46:21;;;;;;;7.23;1.73;;;13.50;56.40;;;;;;5049856;28;20481;-78
2024/01/15 08:48:50;;;;;;;3.47;1.33;;;13.50;56.60;;;;;;5050699;28;20477;-78
2024/01/15 08:51:19;;;;;;;2.70;1.50;;;13.50;56.50;;;;;;5046337;28;20549;-77
2024/01/15 08:53:47;;;;;;;6.93;1.60;;;13.50;56.60;;;;;;5049912;28;20427;-77
2024/01/15 08:56:15;;;;;;;3.17;1.37;;;13.50;56.40;;;;;;5050180;28;20470;-77
2024/01/15 08:58:45;;;;;;;4.93;1.27;;;13.60;56.50;;;;;;5036386;28;20444;-80
2024/01/15 09:01:13;;;;;;;4.40;1.50;;;13.60;56.40;;;;;;5052817;28;20442;-77
2024/01/15 09:03:42;;;;;;;4.13;1.77;;;13.60;56.60;;;;;;5053790;28;20473;-77
2024/01/15 09:06:11;;;;;;;3.47;1.30;;;13.60;56.50;;;;;;5054614;28;20560;-78
2024/01/15 09:08:40;;;;;;;1.43;1.10;;;13.60;56.60;;;;;;5049981;28;20453;-79
2024/01/15 09:11:08;;;;;;;2.27;1.60;;;13.60;56.40;;;;;;5056898;28;20494;-80
2024/01/15 09:13:36;;;;;;;2.07;1.37;;;13.60;56.50;;;;;;5058872;28;20435;-80
2024/01/15 09:16:06;;;;;;;1.60;1.50;;;13.60;56.50;;;;;;5067390;28;20443;-80
2024/01/15 09:18:35;;;;;;;5.00;1.47;;;13.60;56.70;;;;;;5067041;28;20526;-83
2024/01/15 09:21:04;;;;;;;3.50;1.60;;;13.50;56.30;;;;;;5054252;28;20470;-80
2024/01/15 09:23:32;;;;;;;3.37;1.70;;;13.50;56.70;;;;;;5059081;28;20513;-78
2024/01/15 09:26:00;;;;;;;1.73;1.37;;;13.60;56.60;;;;;;5058033;28;20550;-79
2024/01/15 09:28:28;;;;;;;1.40;1.30;;;13.60;56.70;;;;;;5061577;28;20502;-78
2024/01/15 09:30:56;;;;;;;2.87;1.30;;;13.60;56.70;;;;;;5064183;28;20513;-80
2024/01/15 09:33:25;;;;;;;2.10;1.30;;;13.60;56.60;;;;;;5063931;28;20423;-78
2024/01/15 09:35:53;;;;;;;2.37;1.40;;;13.60;57.20;;;;;;5063297;28;20431;-78
2024/01/15 09:38:22;;;;;;;5.63;1.83;;;13.60;56.70;;;;;;5065055;28;20454;-80
2024/01/15 09:40:53;;;;;;;7.40;1.83;;;13.60;56.40;;;;;;5056126;28;20462;-79
2024/01/15 09:43:21;;;;;;;3.23;1.30;;;13.60;56.40;;;;;;5062170;28;20473;-79
2024/01/15 09:45:49;;;;;;;2.13;1.40;;;13.60;56.50;;;;;;5057643;28;20488;-79
2024/01/15 09:48:18;;;;;;;2.17;1.23;;;13.70;56.70;;;;;;5051640;28;21001;-80
2024/01/15 09:50:48;;;;;;;5.30;1.37;;;13.70;56.50;;;;;;5053189;28;20470;-79
2024/01/15 09:53:16;;;;;;;2.07;1.20;;;13.70;56.50;;;;;;5055711;28;20419;-78
2024/01/15 09:55:47;;;;;;;4.37;1.40;;;13.70;56.60;;;;;;5059877;28;20462;-78
2024/01/15 09:58:15;;;;;;;4.53;1.53;;;13.70;56.50;;;;;;5050453;28;20424;-77
2024/01/15 10:00:43;;;;;;;3.50;1.70;;;13.60;56.30;;;;;;5039459;28;20455;-77
2024/01/15 10:03:12;;;;;;;1.90;1.13;;;13.60;56.60;;;;;;5038819;28;20470;-77
2024/01/15 10:05:40;;;;;;;2.87;1.43;;;13.60;56.60;;;;;;5039345;28;20447;-79
2024/01/15 10:08:10;;;;;;;2.83;1.60;;;13.60;56.70;;;;;;5037793;28;20479;-77
2024/01/15 10:10:38;;;;;;;4.30;1.27;;;13.60;56.70;;;;;;5037163;28;20479;-78
2024/01/15 10:13:07;;;;;;;2.20;1.60;;;13.60;56.80;;;;;;5040053;28;20470;-80
2024/01/15 10:15:39;;;;;;;2.40;1.70;;;13.60;56.80;;;;;;5043086;28;20443;-77
2024/01/15 10:18:09;;;;;;;2.70;1.40;;;13.60;56.60;;;;;;5041019;28;20458;-78
2024/01/15 10:20:37;;;;;;;5.17;1.40;;;13.50;56.60;;;;;;5039970;28;20463;-79
2024/01/15 10:23:05;;;;;;;5.70;1.23;;;13.60;56.80;;;;;;5041906;28;20465;-78
2024/01/15 10:25:36;;;;;;;4.10;1.10;;;13.60;56.80;;;;;;5041590;28;20455;-76
2024/01/15 10:28:04;;;;;;;2.00;1.30;;;13.60;56.80;;;;;;5040721;28;20442;-79
2024/01/15 10:30:33;;;;;;;2.53;1.63;;;13.60;56.70;;;;;;5042337;28;20554;-78
2024/01/15 10:33:02;;;;;;;4.80;1.57;;;13.60;56.80;;;;;;5040216;28;20447;-79
2024/01/15 10:35:31;;;;;;;1.43;1.30;;;13.60;56.80;;;;;;5037947;28;20471;-78
2024/01/15 10:37:59;;;;;;;2.40;1.47;;;13.70;56.90;;;;;;5039768;28;20462;-78
2024/01/15 10:40:27;;;;;;;2.37;1.23;;;13.70;56.90;;;;;;5037209;28;20485;-78
2024/01/15 10:42:57;;;;;;;5.33;1.40;;;13.70;56.80;;;;;;5036844;28;20450;-77
2024/01/15 10:45:26;;;;;;;1.80;1.10;;;13.80;56.70;;;;;;5035252;28;20447;-78
2024/01/15 10:47:58;;;;;;;3.40;1.40;;;13.80;56.70;;;;;;5034410;28;20447;-80
2024/01/15 10:50:27;;;;;;;2.10;1.30;;;13.80;56.70;;;;;;5034587;28;20468;-79
2024/01/15 10:52:55;;;;;;;3.33;1.43;;;13.80;56.60;;;;;;5033586;28;20577;-78
2024/01/15 10:55:24;;;;;;;3.53;1.27;;;13.70;56.60;;;;;;5033602;28;20439;-79
2024/01/15 10:57:52;;;;;;;4.87;1.53;;;13.70;56.80;;;;;;5033696;28;20467;-78
2024/01/15 11:00:21;;;;;;;2.10;1.30;;;13.80;56.80;;;;;;5033395;28;20522;-78
2024/01/15 11:02:50;;;;;;;2.10;1.10;;;13.80;56.80;;;;;;5045228;28;20447;-78
2024/01/15 11:05:22;;;;;;;3.17;1.77;;;13.80;56.80;;;;;;5045358;28;20443;-78
2024/01/15 11:07:50;;;;;;;1.67;1.20;;;13.90;56.90;;;;;;5050851;28;20941;-78
2024/01/15 11:10:40;;;;;;;2.83;1.37;;;13.90;56.90;;;;;;5053086;28;20438;-78
2024/01/15 11:13:14;;;;;;;4.90;1.40;;;13.90;56.90;;;;;;5052525;28;20469;-80
2024/01/15 11:15:59;;;;;;;1.50;1.40;;;14.00;56.90;;;;;;5051654;28;20496;-78
2024/01/15 11:18:29;;;;;;;5.20;1.60;;;14.10;56.90;;;;;;5050748;28;20425;-78
2024/01/15 11:21:22;;;;;;;3.37;1.40;;;14.10;56.70;;;;;;5052997;28;20447;-80
2024/01/15 11:23:52;;;;;;;2.00;1.30;;;14.20;56.60;;;;;;5053174;28;20803;-78
2024/01/15 11:26:32;;;;;;;3.50;1.33;;;14.10;56.50;;;;;;5053026;28;20464;-78
2024/01/15 11:29:00;;;;;;;3.67;1.47;;;14.10;56.40;;;;;;5052888;28;20556;-78
2024/01/15 11:31:30;;;;;;;1.43;1.33;;;14.10;56.60;;;;;;5052071;28;20482;-78
2024/01/15 11:33:59;;;;;;;1.77;1.30;;;14.00;56.50;;;;;;5052559;28;20447;-77
2024/01/15 11:37:02;;;;;;;2.20;1.20;;;14.00;56.60;;;;;;5052763;28;20438;-78
2024/01/15 11:39:43;;;;;;;3.77;1.53;;;14.00;56.70;;;;;;5052914;28;20435;-78
2024/01/15 11:42:12;;;;;;;2.27;1.40;;;14.00;56.80;;;;;;5052240;28;20469;-78
2024/01/15 11:44:40;;;;;;;3.07;1.83;;;13.90;56.70;;;;;;5052876;28;20439;-78
2024/01/15 11:47:12;;;;;;;1.90;1.27;;;13.90;56.80;;;;;;5052500;28;20515;-78
2024/01/15 11:50:01;;;;;;;6.20;1.50;;;13.90;56.90;;;;;;5052512;28;20438;-78
2024/01/15 11:52:34;;;;;;;2.87;1.50;;;13.90;56.80;;;;;;5051359;28;20489;-76
2024/01/15 11:55:12;;;;;;;3.63;1.17;;;13.90;56.70;;;;;;5052656;28;21006;-76
2024/01/15 11:57:46;;;;;;;1.67;1.20;;;14.00;56.90;;;;;;5052867;28;20443;-78
2024/01/15 12:00:15;;;;;;;2.40;1.37;;;14.00;56.80;;;;;;5053663;28;21026;-78
2024/01/15 12:02:45;;;;;;;2.33;1.50;;;14.00;56.90;;;;;;5052188;28;20526;-79
2024/01/15 12:05:15;;;;;;;2.23;1.50;;;14.00;56.80;;;;;;5053148;28;20489;-79
2024/01/15 12:07:43;;;;;;;1.80;1.20;;;14.00;56.60;;;;;;5053552;28;20443;-78
2024/01/15 12:10:11;;;;;;;2.80;1.40;;;14.00;56.70;;;;;;5052935;28;20462;-78
2024/01/15 12:13:00;;;;;;;4.20;1.60;;;14.00;56.90;;;;;;5067580;22;20510;-82
2024/01/15 12:15:29;;;;;;;2.10;1.40;;;14.10;57.00;;;;;;5051438;28;20552;-79
2024/01/15 12:17:59;;;;;;;4.00;1.43;;;14.10;56.80;;;;;;5053474;28;20442;-80
2024/01/15 12:20:28;;;;;;;1.90;1.37;;;14.00;56.70;;;;;;5053252;28;20446;-81
2024/01/15 12:22:56;;;;;;;2.07;1.30;;;14.10;56.90;;;;;;5053055;28;20458;-79
2024/01/15 12:25:31;;;;;;;2.37;1.40;;;14.10;56.90;;;;;;5055553;28;20448;-81
2024/01/15 12:27:59;;;;;;;2.70;1.60;;;14.10;56.90;;;;;;5054047;28;20500;-81
2024/01/15 12:30:27;;;;;;;3.10;1.60;;;14.10;56.80;;;;;;5054702;28;20474;-81
2024/01/15 12:32:55;;;;;;;2.27;1.47;;;14.10;56.80;;;;;;5053375;28;20470;-79
2024/01/15 12:35:27;;;;;;;1.27;1.17;;;14.20;57.00;;;;;;5053462;28;20446;-79
2024/01/15 12:37:55;;;;;;;2.90;1.50;;;14.30;56.80;;;;;;5055361;28;20449;-82
2024/01/15 12:40:24;;;;;;;2.00;1.40;;;14.30;56.70;;;;;;5061264;28;20522;-80
2024/01/15 12:42:51;;;;;;;3.87;1.30;;;14.20;56.60;;;;;;5073370;28;20451;-86
2024/01/15 12:45:19;;;;;;;2.63;1.30;;;14.20;56.70;;;;;;5067807;28;20439;-79
2024/01/15 12:47:47;;;;;;;3.13;1.30;;;14.20;56.80;;;;;;5055736;28;20435;-79
2024/01/15 12:50:15;;;;;;;3.10;1.27;;;14.20;56.80;;;;;;5054648;28;20449;-79
2024/01/15 12:52:49;;;;;;;2.00;1.40;;;14.30;56.90;;;;;;5054530;28;20552;-80
2024/01/15 12:55:16;;;;;;;3.03;1.67;;;14.30;56.80;;;;;;5055018;28;20441;-81